createdAt,value
2023-02-15T00:00:37.161Z,96221
2023-02-15T00:04:02.351Z,96220
2023-02-15T00:07:27.543Z,96219
2023-02-15T00:10:52.698Z,96217
2023-02-15T00:14:17.901Z,96219
2023-02-15T00:17:43.049Z,96214
2023-02-15T00:21:08.203Z,96208
2023-02-15T00:24:33.356Z,96206
2023-02-15T00:27:58.509Z,96203
2023-02-15T00:31:23.809Z,96199
2023-02-15T00:34:48.865Z,96203
2023-02-15T00:38:14.043Z,96192
2023-02-15T00:41:39.224Z,96190
2023-02-15T00:45:04.399Z,96182
2023-02-15T00:48:29.617Z,96172
2023-02-15T00:51:54.792Z,96175
2023-02-15T00:55:19.928Z,96177
2023-02-15T00:58:45.109Z,96180
2023-02-15T01:02:10.308Z,96176
2023-02-15T01:05:35.496Z,96180
2023-02-15T01:09:00.628Z,96181
2023-02-15T01:12:25.794Z,96173
2023-02-15T01:15:50.975Z,96173
2023-02-15T01:19:16.125Z,96167
2023-02-15T01:22:41.329Z,96168
2023-02-15T01:26:06.466Z,96168
2023-02-15T01:29:31.641Z,96169
2023-02-15T01:32:56.815Z,96168
2023-02-15T01:36:21.985Z,96161
2023-02-15T01:39:47.187Z,96165
2023-02-15T01:43:12.329Z,96156
2023-02-15T01:46:37.514Z,96153
2023-02-15T01:50:02.656Z,96153
2023-02-15T01:53:27.831Z,96150
2023-02-15T01:56:53.021Z,96144
2023-02-15T02:00:18.144Z,96142
2023-02-15T02:03:43.323Z,96142
2023-02-15T02:07:08.492Z,96134
2023-02-15T02:10:33.628Z,96132
2023-02-15T02:13:59.236Z,96127
2023-02-15T02:17:23.965Z,96127
2023-02-15T02:20:49.130Z,96123
2023-02-15T02:24:14.292Z,96123
2023-02-15T02:27:39.490Z,96120
2023-02-15T02:31:04.818Z,96113
2023-02-15T02:34:29.834Z,96108
2023-02-15T02:37:55.011Z,96108
2023-02-15T02:41:20.183Z,96109
2023-02-15T02:44:45.377Z,96101
2023-02-15T02:48:10.553Z,96103
2023-02-15T02:51:35.677Z,96103
2023-02-15T02:55:00.852Z,96093
2023-02-15T02:58:26.015Z,96097
2023-02-15T03:01:51.299Z,96091
2023-02-15T03:05:16.380Z,96095
2023-02-15T03:08:41.533Z,96087
2023-02-15T03:12:06.729Z,96091
2023-02-15T03:15:31.899Z,96080
2023-02-15T03:18:57.074Z,96080
2023-02-15T03:22:22.258Z,96079
2023-02-15T03:25:47.428Z,96078
2023-02-15T03:29:12.620Z,96076
2023-02-15T03:32:37.766Z,96079
2023-02-15T03:36:03.168Z,96074
2023-02-15T03:39:28.133Z,96074
2023-02-15T03:42:53.296Z,96070
2023-02-15T03:46:18.510Z,96072
2023-02-15T03:49:43.647Z,96072
2023-02-15T03:53:08.829Z,96071
2023-02-15T03:56:34.024Z,96073
2023-02-15T03:59:59.214Z,96077
2023-02-15T04:03:24.388Z,96078
2023-02-15T04:06:49.560Z,96080
2023-02-15T04:10:14.735Z,96082
2023-02-15T04:13:39.915Z,96083
2023-02-15T04:17:05.077Z,96086
2023-02-15T04:20:30.239Z,96090
2023-02-15T04:23:55.424Z,96089
2023-02-15T04:27:20.590Z,96098
2023-02-15T04:30:45.834Z,96096
2023-02-15T04:34:10.986Z,96097
2023-02-15T04:37:36.153Z,96099
2023-02-15T04:41:01.336Z,96093
2023-02-15T04:44:26.512Z,96093
2023-02-15T04:47:51.746Z,96093
2023-02-15T04:51:16.920Z,96094
2023-02-15T04:54:42.112Z,96095
2023-02-15T04:58:07.329Z,96094
2023-02-15T05:01:32.534Z,96091
2023-02-15T05:04:57.737Z,96089
2023-02-15T05:08:22.898Z,96078
2023-02-15T05:11:48.085Z,96082
2023-02-15T05:15:13.249Z,96084
2023-02-15T05:18:38.482Z,96079
2023-02-15T05:22:03.661Z,96070
2023-02-15T05:25:28.819Z,96071
2023-02-15T05:28:54.052Z,96067
2023-02-15T05:32:19.365Z,96064
2023-02-15T05:35:44.423Z,96068
2023-02-15T05:39:09.661Z,96065
2023-02-15T05:42:34.818Z,96065
2023-02-15T05:46:00.372Z,96064
2023-02-15T05:49:25.227Z,96066
2023-02-15T05:52:52.336Z,96063
2023-02-15T05:56:15.698Z,96061
2023-02-15T05:59:41.049Z,96063
2023-02-15T06:03:06.298Z,96063
2023-02-15T06:06:31.483Z,96062
2023-02-15T06:09:56.704Z,96065
2023-02-15T06:13:21.913Z,96064
2023-02-15T06:16:47.078Z,96059
2023-02-15T06:20:12.295Z,96060
2023-02-15T06:23:37.466Z,96059
2023-02-15T06:27:02.677Z,96061
2023-02-15T06:30:27.963Z,96059
2023-02-15T06:33:53.138Z,96061
2023-02-15T06:37:18.318Z,96058
2023-02-15T06:40:43.526Z,96054
2023-02-15T06:44:08.734Z,96052
2023-02-15T06:47:33.909Z,96049
2023-02-15T06:50:59.080Z,96051
2023-02-15T06:54:24.257Z,96055
2023-02-15T06:57:51.019Z,96053
2023-02-15T07:01:14.727Z,96051
2023-02-15T07:04:40.256Z,96052
2023-02-15T07:08:05.299Z,96053
2023-02-15T07:11:30.493Z,96048
2023-02-15T07:14:55.713Z,96047
2023-02-15T07:18:20.918Z,96042
2023-02-15T07:21:46.211Z,96042
2023-02-15T07:25:11.397Z,96040
2023-02-15T07:28:36.621Z,96037
2023-02-15T07:32:01.910Z,96030
2023-02-15T07:35:27.102Z,96029
2023-02-15T07:38:52.328Z,96023
2023-02-15T07:42:17.522Z,96017
2023-02-15T07:45:42.723Z,96020
2023-02-15T07:49:07.940Z,96015
2023-02-15T07:52:33.177Z,96019
2023-02-15T07:55:58.433Z,96016
2023-02-15T07:59:23.616Z,96018
2023-02-15T08:02:48.926Z,96016
2023-02-15T08:06:14.382Z,96013
2023-02-15T08:09:39.589Z,96010
2023-02-15T08:13:04.855Z,96013
2023-02-15T08:16:30.049Z,96008
2023-02-15T08:19:55.278Z,96005
2023-02-15T08:23:20.665Z,96005
2023-02-15T08:26:45.933Z,96009
2023-02-15T08:30:11.222Z,96007
2023-02-15T08:33:36.316Z,95996
2023-02-15T08:37:01.546Z,95994
2023-02-15T08:40:26.852Z,95993
2023-02-15T08:43:52.122Z,96000
2023-02-15T08:47:17.439Z,95994
2023-02-15T08:50:42.605Z,95992
2023-02-15T08:54:07.865Z,95987
2023-02-15T08:57:33.100Z,95985
2023-02-15T09:00:58.329Z,95982
2023-02-15T09:04:23.714Z,95979
2023-02-15T09:07:48.802Z,95979
2023-02-15T09:11:14.029Z,95974
2023-02-15T09:14:39.236Z,95974
2023-02-15T09:18:04.419Z,95973
2023-02-15T09:21:29.725Z,95971
2023-02-15T09:24:54.840Z,95968
2023-02-15T09:28:20.028Z,95970
2023-02-15T09:31:45.617Z,95971
2023-02-15T09:35:10.509Z,95975
2023-02-15T09:38:35.743Z,95974
2023-02-15T09:42:00.938Z,95977
2023-02-15T09:45:26.145Z,95977
2023-02-15T09:48:51.326Z,95971
2023-02-15T09:52:16.552Z,95974
2023-02-15T09:55:41.786Z,95977
2023-02-15T09:59:06.987Z,95975
2023-02-15T10:02:32.227Z,95969
2023-02-15T10:05:57.417Z,95975
2023-02-15T10:09:22.633Z,95974
2023-02-15T10:12:47.883Z,95971
2023-02-15T10:16:13.044Z,95978
2023-02-15T10:19:38.237Z,95985
2023-02-15T10:23:03.433Z,95981
2023-02-15T10:26:28.652Z,95981
2023-02-15T10:29:53.918Z,95981
2023-02-15T10:33:19.057Z,95976
2023-02-15T10:36:44.261Z,95971
2023-02-15T10:40:09.484Z,95974
2023-02-15T10:43:34.701Z,95970
2023-02-15T10:46:59.902Z,95964
2023-02-15T10:50:25.067Z,95968
2023-02-15T10:53:50.273Z,95965
2023-02-15T10:57:15.522Z,95968
2023-02-15T11:00:40.770Z,95966
2023-02-15T11:04:06.004Z,95965
2023-02-15T11:07:31.178Z,95958
2023-02-15T11:10:56.370Z,95957
2023-02-15T11:14:21.565Z,95964
2023-02-15T11:17:46.777Z,95957
2023-02-15T11:21:12.582Z,95954
2023-02-15T11:24:37.775Z,95952
2023-02-15T11:28:03.003Z,95943
2023-02-15T11:31:28.341Z,95935
2023-02-15T11:34:53.430Z,95931
2023-02-15T11:38:18.646Z,95929
2023-02-15T11:41:43.860Z,95927
2023-02-15T11:45:09.068Z,95921
2023-02-15T11:48:34.283Z,95919
2023-02-15T11:51:59.508Z,95910
2023-02-15T11:55:24.736Z,95909
2023-02-15T11:58:49.927Z,95906
2023-02-15T12:02:15.136Z,95900
2023-02-15T12:05:40.340Z,95894
2023-02-15T12:09:05.536Z,95891
2023-02-15T12:12:30.796Z,95900
2023-02-15T12:15:56.035Z,95899
2023-02-15T12:19:21.186Z,95893
2023-02-15T12:22:46.425Z,95900
2023-02-15T12:26:11.586Z,95903
2023-02-15T12:29:36.845Z,95906
2023-02-15T12:33:02.041Z,95905
2023-02-15T12:36:27.236Z,95904
2023-02-15T12:39:52.428Z,95899
2023-02-15T12:43:17.689Z,95896
2023-02-15T12:46:42.987Z,95892
2023-02-15T12:50:12.088Z,95895
2023-02-15T12:53:33.358Z,95889
2023-02-15T12:56:58.852Z,95889
2023-02-15T13:00:24.046Z,95884
2023-02-15T13:03:49.288Z,95882
2023-02-15T13:07:14.484Z,95882
2023-02-15T13:10:39.723Z,95883
2023-02-15T13:14:04.978Z,95879
2023-02-15T13:17:30.174Z,95879
2023-02-15T13:20:55.386Z,95879
2023-02-15T13:24:20.660Z,95872
2023-02-15T13:27:45.807Z,95870
2023-02-15T13:31:11.058Z,95857
2023-02-15T13:34:36.204Z,95857
2023-02-15T13:38:01.434Z,95858
2023-02-15T13:41:26.595Z,95855
2023-02-15T13:44:51.842Z,95857
2023-02-15T13:48:17.088Z,95858
2023-02-15T13:51:42.298Z,95852
2023-02-15T13:55:07.548Z,95854
2023-02-15T13:58:32.748Z,95855
2023-02-15T14:01:57.929Z,95850
2023-02-15T14:05:23.669Z,95848
2023-02-15T14:08:48.381Z,95849
2023-02-15T14:12:13.647Z,95853
2023-02-15T14:15:38.757Z,95857
2023-02-15T14:19:03.988Z,95861
2023-02-15T14:22:29.363Z,95855
2023-02-15T14:25:54.409Z,95852
2023-02-15T14:29:19.648Z,95850
2023-02-15T15:06:05.878Z,95851
2023-02-15T15:09:30.052Z,95843
2023-02-15T15:12:55.283Z,95834
2023-02-15T15:16:20.575Z,95836
2023-02-15T15:19:51.714Z,95837
2023-02-15T15:23:11.015Z,95840
2023-02-15T15:26:36.216Z,95835
2023-02-15T15:30:01.436Z,95834
2023-02-15T15:33:26.644Z,95843
2023-02-15T15:36:51.837Z,95837
2023-02-15T15:40:17.130Z,95836
2023-02-15T15:43:42.272Z,95838
2023-02-15T15:47:07.487Z,95837
2023-02-15T15:50:32.709Z,95840
2023-02-15T15:53:57.911Z,95841
2023-02-15T15:57:23.153Z,95831
2023-02-15T16:00:48.363Z,95834
2023-02-15T16:04:13.569Z,95836
2023-02-15T16:07:38.784Z,95834
2023-02-15T16:11:04.006Z,95841
2023-02-15T16:14:29.247Z,95837
2023-02-15T16:17:54.410Z,95838
2023-02-15T16:21:19.632Z,95834
2023-02-15T16:24:44.868Z,95833
2023-02-15T16:28:10.047Z,95840
2023-02-15T16:31:35.455Z,95840
2023-02-15T16:35:00.503Z,95842
2023-02-15T16:38:25.711Z,95841
2023-02-15T16:41:50.932Z,95834
2023-02-15T16:45:16.136Z,95837
2023-02-15T16:48:41.403Z,95835
2023-02-15T16:52:06.559Z,95830
2023-02-15T16:55:31.783Z,95827
2023-02-15T16:58:57.007Z,95830
2023-02-15T17:02:40.488Z,95831
2023-02-15T17:05:47.457Z,95836
2023-02-15T17:09:12.704Z,95838
2023-02-15T17:12:37.815Z,95840
2023-02-15T17:16:03.521Z,95847
2023-02-15T17:19:28.247Z,95848
2023-02-15T17:22:53.525Z,95837
2023-02-15T17:26:18.676Z,95841
2023-02-15T17:29:43.887Z,95842
2023-02-15T17:33:11.046Z,95843
2023-02-15T17:36:34.292Z,95855
2023-02-15T17:39:59.558Z,95855
2023-02-15T17:43:24.727Z,95855
2023-02-15T17:46:49.999Z,95854
2023-02-15T17:50:15.216Z,95850
2023-02-15T17:53:40.440Z,95848
2023-02-15T17:57:05.764Z,95854
2023-02-15T18:00:30.846Z,95847
2023-02-15T18:03:56.099Z,95850
2023-02-15T18:07:21.236Z,95850
2023-02-15T18:10:46.417Z,95848
2023-02-15T18:14:11.653Z,95846
2023-02-15T18:17:36.815Z,95852
2023-02-15T18:21:02.314Z,95846
2023-02-15T18:24:27.191Z,95849
2023-02-15T18:27:54.832Z,95844
2023-02-15T18:31:17.662Z,95851
2023-02-15T18:34:42.736Z,95851
2023-02-15T18:38:07.917Z,95850
2023-02-15T18:41:33.167Z,95846
2023-02-15T18:44:58.456Z,95841
2023-02-15T18:48:23.761Z,95843
2023-02-15T18:51:48.997Z,95838
2023-02-15T18:55:14.240Z,95836
2023-02-15T18:58:39.482Z,95832
2023-02-15T19:02:04.757Z,95832
2023-02-15T19:05:30.102Z,95825
2023-02-15T19:08:55.213Z,95831
2023-02-15T19:12:20.458Z,95831
2023-02-15T19:15:45.746Z,95825
2023-02-15T19:19:11.004Z,95832
2023-02-15T19:22:36.450Z,95825
2023-02-15T19:26:02.229Z,95827
2023-02-15T19:29:26.806Z,95824
2023-02-15T19:32:52.017Z,95819
2023-02-15T19:36:17.227Z,95820
2023-02-15T19:39:42.581Z,95822
2023-02-15T19:43:07.709Z,95818
2023-02-15T19:46:32.960Z,95817
2023-02-15T19:49:58.205Z,95815
2023-02-15T19:53:23.527Z,95813
2023-02-15T19:56:48.807Z,95810
2023-02-15T20:00:21.706Z,95806
2023-02-15T20:03:39.233Z,95802
2023-02-15T20:07:04.537Z,95810
2023-02-15T20:10:29.769Z,95810
2023-02-15T20:13:55.002Z,95800
2023-02-15T20:17:20.230Z,95808
2023-02-15T20:20:45.505Z,95808
2023-02-15T20:24:10.726Z,95805
2023-02-15T20:27:35.957Z,95800
2023-02-15T20:31:01.422Z,95796
2023-02-15T20:34:26.504Z,95799
2023-02-15T20:37:51.747Z,95799
2023-02-15T20:41:16.987Z,95799
2023-02-15T20:44:42.279Z,95795
2023-02-15T20:48:07.555Z,95795
2023-02-15T20:51:32.761Z,95788
2023-02-15T20:54:57.987Z,95781
2023-02-15T20:58:23.218Z,95775
2023-02-15T21:01:48.490Z,95774
2023-02-15T21:05:13.741Z,95772
2023-02-15T21:08:38.993Z,95767
2023-02-15T21:12:04.193Z,95767
2023-02-15T21:15:29.419Z,95757
2023-02-15T21:18:54.649Z,95761
2023-02-15T21:22:19.927Z,95761
2023-02-15T21:25:45.099Z,95765
2023-02-15T21:29:10.302Z,95765
2023-02-15T21:32:35.676Z,95765
2023-02-15T21:36:00.750Z,95760
2023-02-15T21:39:25.983Z,95759
2023-02-15T21:42:51.162Z,95759
2023-02-15T21:46:16.433Z,95762
2023-02-15T21:49:41.592Z,95754
2023-02-15T21:53:06.798Z,95752
2023-02-15T21:56:32.064Z,95751
2023-02-15T21:59:57.246Z,95759
2023-02-15T22:03:22.490Z,95760
2023-02-15T22:06:47.726Z,95763
2023-02-15T22:10:12.959Z,95764
2023-02-15T22:13:38.185Z,95769
2023-02-15T22:17:03.424Z,95780
2023-02-15T22:20:28.636Z,95781
2023-02-15T22:23:53.847Z,95789
2023-02-15T22:27:19.068Z,95790
2023-02-15T22:30:44.288Z,95785
2023-02-15T22:34:09.449Z,95789
2023-02-15T22:37:34.663Z,95785
2023-02-15T22:40:59.880Z,95778
2023-02-15T22:44:25.082Z,95788
2023-02-15T22:47:50.392Z,95797
2023-02-15T22:51:15.539Z,95793
2023-02-15T22:54:40.749Z,95804
2023-02-15T22:58:05.949Z,95803
2023-02-15T23:01:31.173Z,95798
2023-02-15T23:04:56.433Z,95794
2023-02-15T23:08:21.627Z,95797
2023-02-15T23:11:46.873Z,95797
2023-02-15T23:15:12.084Z,95793
2023-02-15T23:18:37.341Z,95796
2023-02-15T23:22:02.568Z,95794
2023-02-15T23:25:27.772Z,95789
2023-02-15T23:28:53.040Z,95784
2023-02-15T23:32:18.301Z,95788
2023-02-15T23:35:43.389Z,95792
2023-02-15T23:39:08.646Z,95783
2023-02-15T23:42:33.849Z,95780
2023-02-15T23:45:59.051Z,95777
2023-02-15T23:49:25.932Z,95778
2023-02-15T23:52:51.160Z,95778
2023-02-15T23:56:16.399Z,95785
2023-02-15T23:59:41.584Z,95784
